createdAt,value
2022-11-15T03:35:27.962Z,4.15
2022-11-15T03:38:24.685Z,4.03
2022-11-15T03:41:16.259Z,4.18
2022-11-15T03:43:58.393Z,4.10
2022-11-15T03:46:38.755Z,4.10
2022-11-15T03:49:11.971Z,3.95
2022-11-15T03:51:38.900Z,3.88
2022-11-15T03:54:05.975Z,4.10
2022-11-15T03:56:33.057Z,3.92
2022-11-15T03:58:59.612Z,3.88
2022-11-15T04:01:26.201Z,3.70
2022-11-15T04:06:19.361Z,3.92
2022-11-15T04:11:12.296Z,3.70
2022-11-15T04:13:39.248Z,4.20
2022-11-15T04:16:05.892Z,3.75
2022-11-15T04:21:17.484Z,4.10
2022-11-15T04:23:52.773Z,3.92
2022-11-15T04:26:22.003Z,3.95
2022-11-15T04:29:07.609Z,3.88
2022-11-15T04:31:34.288Z,4.10
2022-11-15T04:36:46.012Z,3.97
2022-11-15T04:39:12.625Z,4.03
2022-11-15T04:44:05.783Z,4.53
2022-11-15T04:48:59.488Z,4.50
2022-11-15T04:51:26.509Z,4.15
2022-11-15T04:53:53.349Z,4.25
2022-11-15T04:56:20.430Z,4.20
2022-11-15T04:58:49.968Z,4.00
2022-11-15T05:01:16.612Z,4.72
2022-11-15T05:06:29.066Z,4.13
2022-11-15T05:08:56.332Z,4.22
2022-11-15T05:11:23.504Z,5.40
2022-11-15T05:13:50.252Z,4.30
2022-11-15T05:16:16.789Z,4.20
2022-11-15T05:18:43.311Z,4.05
2022-11-15T05:21:15.671Z,4.05
2022-11-15T05:23:42.512Z,3.90
2022-11-15T05:26:10.654Z,4.05
2022-11-15T05:28:37.841Z,3.67
2022-11-15T05:31:12.717Z,3.70
2022-11-15T05:33:41.883Z,5.00
2022-11-15T05:36:10.886Z,4.03
2022-11-15T05:38:37.637Z,4.03
2022-11-15T05:41:06.022Z,3.20
2022-11-15T05:43:37.337Z,3.95
2022-11-15T05:46:05.917Z,3.58
2022-11-15T05:48:35.226Z,3.60
2022-11-15T05:51:03.700Z,3.22
2022-11-15T05:53:31.566Z,3.25
2022-11-15T05:55:58.743Z,4.30
2022-11-15T05:58:25.355Z,4.90
2022-11-15T06:03:18.361Z,3.80
2022-11-15T06:08:11.409Z,3.67
2022-11-15T06:10:38.105Z,3.47
2022-11-15T06:15:34.872Z,3.78
2022-11-15T06:18:02.159Z,4.00
2022-11-15T06:20:30.228Z,4.22
2022-11-15T06:23:00.972Z,4.03
2022-11-15T06:25:28.544Z,4.03
2022-11-15T06:27:56.565Z,3.53
2022-11-15T06:30:24.529Z,3.40
2022-11-15T06:32:51.354Z,3.80
2022-11-15T06:35:18.496Z,4.43
2022-11-15T06:37:45.029Z,4.03
2022-11-15T06:40:12.078Z,4.22
2022-11-15T06:42:38.622Z,4.22
2022-11-15T06:45:05.625Z,4.10
2022-11-15T06:47:32.142Z,4.10
2022-11-15T06:49:58.667Z,3.50
2022-11-15T06:52:25.278Z,3.65
2022-11-15T06:57:18.342Z,3.80
2022-11-15T07:02:14.570Z,4.97
2022-11-15T07:04:41.050Z,5.15
2022-11-15T07:07:07.698Z,6.60
2022-11-15T07:12:06.229Z,3.83
2022-11-15T07:14:34.194Z,3.80
2022-11-15T07:19:27.215Z,4.18
2022-11-15T07:24:20.077Z,3.83
2022-11-15T07:26:46.671Z,4.40
2022-11-15T07:29:13.207Z,4.00
2022-11-15T07:34:12.145Z,4.47
2022-11-15T07:39:05.120Z,3.85
2022-11-15T07:41:31.795Z,4.35
2022-11-15T07:46:25.104Z,4.32
2022-11-15T07:48:51.684Z,4.05
2022-11-15T07:51:18.423Z,3.80
2022-11-15T07:56:12.603Z,3.35
2022-11-15T07:58:39.173Z,3.72
2022-11-15T08:03:38.030Z,4.00
2022-11-15T08:06:04.873Z,3.30
2022-11-15T08:08:31.394Z,3.40
2022-11-15T08:11:01.783Z,3.40
2022-11-15T08:13:28.523Z,3.40
2022-11-15T08:16:02.407Z,4.65
2022-11-15T08:18:28.992Z,3.53
2022-11-15T08:23:26.329Z,4.63
2022-11-15T08:28:19.258Z,4.05
2022-11-15T08:33:15.029Z,4.10
2022-11-15T08:35:45.215Z,3.78
2022-11-15T08:38:11.886Z,4.30
2022-11-15T08:43:05.202Z,4.13
2022-11-15T08:47:58.875Z,4.15
2022-11-15T08:50:25.466Z,3.80
2022-11-15T08:55:18.479Z,4.18
2022-11-15T09:00:13.323Z,3.85
2022-11-15T09:02:40.932Z,4.68
2022-11-15T09:05:08.426Z,5.32
2022-11-15T09:07:35.258Z,3.75
2022-11-15T09:10:01.803Z,4.07
2022-11-15T09:12:28.686Z,4.28
2022-11-15T09:14:55.781Z,3.78
2022-11-15T09:17:24.858Z,3.40
2022-11-15T09:19:51.972Z,3.58
2022-11-15T09:22:18.917Z,3.70
2022-11-15T09:24:45.706Z,4.00
2022-11-15T09:27:13.056Z,3.60
2022-11-15T09:29:39.726Z,3.50
2022-11-15T09:32:06.500Z,4.72
2022-11-15T09:34:33.072Z,3.60
2022-11-15T09:39:26.015Z,3.50
2022-11-15T09:44:46.088Z,4.03
2022-11-15T09:47:32.851Z,3.75
2022-11-15T09:50:02.659Z,3.40
2022-11-15T09:52:29.375Z,3.65
2022-11-15T09:54:56.474Z,3.92
2022-11-15T09:57:32.293Z,3.72
2022-11-15T10:03:12.457Z,3.13
2022-11-15T10:05:50.668Z,3.88
2022-11-15T10:08:46.476Z,3.35
2022-11-15T10:11:37.648Z,3.08
2022-11-15T10:14:13.615Z,4.13
2022-11-15T10:17:16.068Z,3.40
2022-11-15T10:19:51.788Z,3.20
2022-11-15T10:22:24.032Z,3.17
2022-11-15T10:25:04.427Z,3.20
2022-11-15T10:27:31.295Z,3.30
2022-11-15T10:29:57.801Z,3.05
2022-11-15T10:34:51.470Z,3.15
2022-11-15T10:37:31.773Z,3.50
2022-11-15T10:40:17.294Z,3.10
2022-11-15T10:42:43.865Z,3.60
2022-11-15T10:47:54.557Z,2.70
2022-11-15T10:50:33.089Z,3.17
2022-11-15T10:53:03.689Z,3.00
2022-11-15T10:55:32.873Z,4.68
2022-11-15T10:58:21.018Z,5.78
2022-11-15T11:00:47.701Z,3.85
2022-11-15T11:03:29.572Z,3.40
2022-11-15T11:06:06.600Z,4.85
2022-11-15T11:08:33.826Z,3.63
2022-11-15T11:11:03.630Z,3.80
2022-11-15T11:13:34.556Z,3.97
2022-11-15T11:16:15.381Z,3.60
2022-11-15T11:18:55.844Z,3.50
2022-11-15T11:21:55.376Z,3.58
2022-11-15T11:24:41.596Z,4.00
2022-11-15T11:27:10.850Z,3.70
2022-11-15T11:30:05.581Z,6.07
2022-11-15T11:32:55.463Z,4.00
2022-11-15T11:35:27.994Z,3.67
2022-11-15T11:38:05.193Z,3.80
2022-11-15T11:40:38.238Z,3.10
2022-11-15T11:43:08.461Z,3.80
2022-11-15T11:45:51.682Z,3.40
2022-11-15T11:48:27.376Z,4.28
2022-11-15T11:50:58.894Z,3.40
2022-11-15T11:53:48.457Z,3.72
2022-11-15T11:56:33.861Z,3.40
2022-11-15T11:59:27.137Z,3.08
2022-11-15T12:01:54.105Z,3.30
2022-11-15T12:04:43.891Z,3.60
2022-11-15T12:07:21.426Z,3.05
2022-11-15T12:10:04.174Z,3.17
2022-11-15T12:12:45.560Z,3.10
2022-11-15T12:15:25.697Z,3.33
2022-11-15T12:17:53.171Z,3.22
2022-11-15T12:20:29.513Z,2.90
2022-11-15T12:23:02.306Z,2.85
2022-11-15T12:25:52.949Z,2.80
2022-11-15T12:28:35.278Z,2.97
2022-11-15T12:31:12.945Z,3.53
2022-11-15T12:33:43.308Z,3.22
2022-11-15T12:36:41.248Z,3.50
2022-11-15T12:39:12.411Z,2.95
2022-11-15T12:41:41.377Z,2.80
2022-11-15T12:44:44.579Z,2.80
2022-11-15T12:47:11.059Z,3.30
2022-11-15T12:52:06.768Z,2.63
2022-11-15T12:54:33.399Z,2.85
2022-11-15T12:57:08.914Z,2.78
2022-11-15T12:59:55.873Z,2.75
2022-11-15T13:02:26.547Z,2.63
2022-11-15T13:04:56.162Z,2.80
2022-11-15T13:07:59.296Z,3.05
2022-11-15T13:10:28.644Z,3.80
2022-11-15T13:12:57.345Z,3.20
2022-11-15T13:15:39.552Z,3.00
2022-11-15T13:18:34.097Z,3.42
2022-11-15T13:21:02.942Z,3.00
2022-11-15T13:23:29.956Z,3.00
2022-11-15T13:26:19.026Z,2.90
2022-11-15T13:28:50.460Z,3.17
2022-11-15T13:31:31.728Z,4.32
2022-11-15T13:34:02.505Z,4.10
2022-11-15T13:36:36.918Z,3.45
2022-11-15T13:39:28.394Z,3.33
2022-11-15T13:41:55.458Z,2.72
2022-11-15T13:44:24.755Z,2.85
2022-11-15T13:47:03.205Z,3.53
2022-11-15T13:49:32.446Z,2.60
2022-11-15T13:52:02.860Z,3.00
2022-11-15T13:54:39.423Z,3.30
2022-11-15T13:57:13.820Z,3.25
2022-11-15T13:59:54.062Z,3.33
2022-11-15T14:02:26.875Z,2.50
2022-11-15T14:04:59.228Z,2.70
2022-11-15T14:07:28.918Z,2.75
2022-11-15T14:09:56.296Z,2.75
2022-11-15T14:12:32.892Z,2.80
2022-11-15T14:15:02.090Z,3.25
2022-11-15T14:17:31.702Z,3.10
2022-11-15T14:19:59.050Z,3.40
2022-11-15T14:22:27.157Z,3.00
2022-11-15T14:25:08.781Z,2.92
2022-11-15T14:27:35.589Z,2.97
2022-11-15T14:30:02.283Z,2.80
2022-11-15T14:32:31.287Z,2.90
2022-11-15T14:35:03.087Z,2.95
2022-11-15T14:37:34.153Z,3.17
2022-11-15T14:40:00.809Z,2.95
2022-11-15T14:42:27.390Z,3.70
2022-11-15T14:47:20.995Z,2.80
2022-11-15T14:49:47.952Z,3.10
2022-11-15T14:52:36.297Z,3.40
2022-11-15T14:55:12.695Z,3.28
2022-11-15T14:57:39.241Z,3.97
2022-11-15T15:02:33.797Z,3.40
2022-11-15T15:05:02.187Z,3.72
2022-11-15T15:07:28.739Z,4.13
2022-11-15T15:12:42.201Z,3.80
2022-11-15T15:15:20.852Z,3.17
2022-11-15T15:17:47.426Z,3.40
2022-11-15T15:22:40.813Z,4.43
2022-11-15T15:25:22.532Z,5.70
2022-11-15T15:27:49.710Z,8.20
2022-11-15T15:30:16.297Z,8.88
2022-11-15T15:35:13.541Z,7.57
2022-11-15T15:37:40.518Z,6.43
2022-11-15T15:40:22.325Z,6.03
2022-11-15T15:42:49.830Z,4.22
2022-11-15T15:45:17.661Z,4.50
2022-11-15T15:47:45.157Z,5.18
2022-11-15T15:50:20.982Z,3.50
2022-11-15T15:52:47.536Z,3.58
2022-11-15T15:57:40.698Z,3.25
2022-11-15T16:00:07.858Z,2.60
2022-11-15T16:02:39.260Z,2.85
2022-11-15T16:05:07.914Z,2.83
2022-11-15T16:07:34.761Z,3.08
2022-11-15T16:10:01.576Z,2.90
2022-11-15T16:12:35.670Z,3.28
2022-11-15T16:15:03.727Z,3.17
2022-11-15T16:17:35.113Z,3.20
2022-11-15T16:20:02.339Z,2.90
2022-11-15T16:22:30.228Z,3.50
2022-11-15T16:24:57.421Z,3.35
2022-11-15T16:27:24.547Z,4.22
2022-11-15T16:29:51.095Z,4.78
2022-11-15T16:34:48.773Z,4.68
2022-11-15T16:37:34.031Z,5.00
2022-11-15T16:40:01.241Z,4.72
2022-11-15T16:42:28.078Z,4.47
2022-11-15T16:47:21.303Z,3.90
2022-11-15T16:49:48.067Z,4.18
2022-11-15T16:52:17.618Z,4.53
2022-11-15T16:54:47.632Z,5.85
2022-11-15T16:59:40.592Z,5.18
2022-11-15T17:04:38.391Z,5.65
2022-11-15T17:09:33.044Z,5.72
2022-11-15T17:11:59.582Z,5.82
2022-11-15T17:16:52.564Z,6.25
2022-11-15T17:24:13.888Z,5.45
2022-11-15T17:29:08.198Z,4.63
2022-11-15T17:31:39.027Z,6.13
2022-11-15T17:34:06.805Z,5.15
2022-11-15T17:36:33.927Z,5.10
2022-11-15T17:39:00.602Z,4.53
2022-11-15T17:41:28.738Z,4.88
2022-11-15T17:44:00.058Z,5.90
2022-11-15T17:46:28.067Z,5.97
2022-11-15T17:48:56.253Z,6.85
2022-11-15T17:51:24.176Z,5.80
2022-11-15T17:53:51.571Z,5.82
2022-11-15T17:56:20.305Z,5.90
2022-11-15T17:58:55.016Z,6.25
2022-11-15T18:01:21.548Z,6.05
2022-11-15T18:06:16.128Z,4.78
2022-11-15T18:08:45.162Z,5.35
2022-11-15T18:11:16.141Z,5.40
2022-11-15T18:13:51.936Z,4.57
2022-11-15T18:16:21.869Z,5.60
2022-11-15T18:18:48.992Z,4.80
2022-11-15T18:21:18.837Z,4.82
2022-11-15T18:23:47.341Z,5.07
2022-11-15T18:26:15.877Z,4.95
2022-11-15T18:28:46.902Z,5.82
2022-11-15T18:31:19.365Z,7.28
2022-11-15T18:33:46.158Z,5.70
2022-11-15T18:38:40.761Z,5.35
2022-11-15T18:43:39.783Z,5.45
2022-11-15T18:46:14.473Z,5.30
2022-11-15T18:48:42.590Z,5.43
2022-11-15T18:51:22.520Z,5.50
2022-11-15T18:53:52.118Z,5.95
2022-11-15T18:56:20.674Z,4.95
2022-11-15T18:58:49.605Z,4.80
2022-11-15T19:01:25.245Z,4.90
2022-11-15T19:03:53.954Z,5.15
2022-11-15T19:06:25.833Z,5.55
2022-11-15T19:08:54.804Z,5.47
2022-11-15T19:11:31.736Z,4.82
2022-11-15T19:14:03.290Z,4.82
2022-11-15T19:16:33.274Z,4.55
2022-11-15T19:19:08.548Z,5.45
2022-11-15T19:21:35.147Z,5.20
2022-11-15T19:26:29.651Z,4.90
2022-11-15T19:28:58.811Z,4.20
2022-11-15T19:31:26.714Z,4.15
2022-11-15T19:33:53.958Z,4.90
2022-11-15T19:36:28.958Z,5.18
2022-11-15T19:38:56.331Z,4.45
2022-11-15T19:41:26.691Z,4.53
2022-11-15T19:43:53.820Z,4.40
2022-11-15T19:46:23.720Z,4.43
2022-11-15T19:48:51.557Z,4.22
2022-11-15T19:51:24.979Z,4.60
2022-11-15T19:53:57.688Z,4.80
2022-11-15T19:56:24.556Z,4.35
2022-11-15T19:58:55.822Z,4.47
2022-11-15T20:01:30.346Z,4.30
2022-11-15T20:03:59.595Z,4.97
2022-11-15T20:06:32.351Z,4.25
2022-11-15T20:08:59.921Z,4.85
2022-11-15T20:11:27.212Z,5.03
2022-11-15T20:14:02.293Z,6.18
2022-11-15T20:16:29.879Z,4.50
2022-11-15T20:18:56.448Z,4.43
2022-11-15T20:23:51.087Z,4.45
2022-11-15T20:26:18.936Z,4.75
2022-11-15T20:28:45.675Z,5.38
2022-11-15T20:31:13.124Z,4.63
2022-11-15T20:33:40.117Z,4.68
2022-11-15T20:36:10.249Z,4.93
2022-11-15T20:38:37.499Z,4.65
2022-11-15T20:41:08.644Z,4.85
2022-11-15T20:43:35.283Z,4.18
2022-11-15T20:48:28.394Z,4.20
2022-11-15T20:53:31.616Z,4.10
2022-11-15T20:56:04.466Z,4.15
2022-11-15T20:58:31.292Z,5.53
2022-11-15T21:00:58.329Z,3.97
2022-11-15T21:03:24.984Z,3.78
2022-11-15T21:08:21.217Z,3.83
2022-11-15T21:13:36.717Z,3.60
2022-11-15T21:16:06.766Z,4.95
2022-11-15T21:18:33.563Z,4.45
2022-11-15T21:21:05.198Z,4.15
2022-11-15T21:23:31.849Z,4.50
2022-11-15T21:28:25.265Z,4.00
2022-11-15T21:33:18.965Z,3.53
2022-11-15T21:35:45.528Z,4.38
2022-11-15T21:38:12.034Z,4.43
2022-11-15T21:40:38.740Z,4.85
2022-11-15T21:45:31.710Z,4.13
2022-11-15T21:47:58.235Z,3.90
2022-11-15T21:50:24.665Z,4.10
2022-11-15T21:52:51.130Z,4.03
2022-11-15T21:55:17.579Z,4.18
2022-11-15T21:57:44.022Z,4.15
2022-11-15T22:00:29.619Z,4.22
